Christina G — ZCXO5 — position and weather

sailwx.info

Track history (hours):
 
Tides and Currents Weather Stations Pressure Air Temp Water Temp Dewpoint Dewpoint Depression Visibility Wind Speed Wind Dir Waves Ship Positions

Christina G

Last reported at 2018-May-26 07:52 UTC. Time now 2018-May-27 08:10 UTC.
Position N 38°50' E 001°26'.

Length 33 m; draft 2.5 m.

MMSI: 319032100.

Date/timePositionNaut miles runAvg speedWind from/ knotsBaromVisibWave heightAir tempDewpointWater temp
2018-May-26 07:52N 38°50' E 001°26'3 8.8
2018-May-26 07:30N 38°53' E 001°27'2 0.1
2018-May-24 19:52N 38°54' E 001°29'3 8.8
2018-May-24 19:30N 38°56' E 001°32'50 9.5
2018-May-24 14:11N 39°24' E 002°26'210.4
2018-May-24 13:58N 39°25' E 002°28'510.4
2018-May-24 13:30N 39°28' E 002°33'6 1.4
2018-May-24 08:58N 39°34' E 002°38'0 0.0
2018-May-24 08:28N 39°34' E 002°38'0 0.0
2018-May-24 07:58N 39°34' E 002°38'0 0.0
2018-May-24 07:28N 39°34' E 002°38'0 0.0
2018-May-24 06:55N 39°34' E 002°38'0 0.0
2018-May-24 06:28N 39°34' E 002°38'0 0.0
2018-May-24 05:58N 39°34' E 002°38'0 0.0
2018-May-24 05:28N 39°34' E 002°38'0 0.0
2018-May-24 04:58N 39°34' E 002°38'0 0.0
2018-May-24 04:28N 39°34' E 002°38'0 0.0
2018-May-24 03:58N 39°34' E 002°38'0 0.0
2018-May-24 03:28N 39°34' E 002°38'0 0.0
2018-May-24 02:58N 39°34' E 002°38'0 0.0
2018-May-24 02:28N 39°34' E 002°38'0 0.0
2018-May-24 01:58N 39°34' E 002°38'0 0.0
2018-May-24 01:28N 39°34' E 002°38'0 0.0
2018-May-24 00:58N 39°34' E 002°38'0 0.0
2018-May-24 00:28N 39°34' E 002°38'0 0.0
2018-May-23 23:58N 39°34' E 002°38'0 0.0
2018-May-23 23:28N 39°34' E 002°38'0 0.0
2018-May-23 22:58N 39°34' E 002°38'0 0.0
2018-May-23 22:28N 39°34' E 002°38'0 0.0
2018-May-23 21:58N 39°34' E 002°38'0 0.0
2018-May-23 21:28N 39°34' E 002°38'0 0.0
2018-May-23 20:58N 39°34' E 002°38'0 0.0
2018-May-23 20:28N 39°34' E 002°38'0 0.0
2018-May-23 19:58N 39°34' E 002°38'0 0.0
2018-May-23 19:28N 39°34' E 002°38'0 0.0
2018-May-23 18:58N 39°34' E 002°38'0 0.0
2018-May-23 18:28N 39°34' E 002°38'0 0.0
2018-May-23 17:58N 39°34' E 002°38'0 0.0
2018-May-23 17:28N 39°34' E 002°38'0 0.0
2018-May-23 16:58N 39°34' E 002°38'0 0.0
2018-May-23 16:28N 39°34' E 002°38'0 0.0
2018-May-23 15:58N 39°34' E 002°38'0 0.0
2018-May-23 15:28N 39°34' E 002°38'0 0.0
2018-May-23 14:58N 39°34' E 002°38'0 0.0
2018-May-23 14:28N 39°34' E 002°38'0 0.0
2018-May-23 13:58N 39°34' E 002°38'0 0.0
2018-May-23 13:28N 39°34' E 002°38'0 0.0
2018-May-23 12:58N 39°34' E 002°38'0 0.0
2018-May-23 12:28N 39°34' E 002°38'0 0.0
2018-May-23 11:58N 39°34' E 002°38'0 0.0
2018-May-23 11:28N 39°34' E 002°38'0 0.0
2018-May-23 10:58N 39°34' E 002°38'0 0.0
2018-May-23 10:28N 39°34' E 002°38'0 0.0
2018-May-23 09:58N 39°34' E 002°38'0 0.0
2018-May-23 09:25N 39°34' E 002°38'0 0.0
2018-May-23 08:58N 39°34' E 002°38'0 0.0
2018-May-23 08:28N 39°34' E 002°38'0 0.0
2018-May-23 07:58N 39°34' E 002°38'0 0.0
2018-May-23 07:28N 39°34' E 002°38'0 0.0
2018-May-23 06:58N 39°34' E 002°38'0 0.0
2018-May-23 06:28N 39°34' E 002°38'0 0.0
2018-May-23 05:58N 39°34' E 002°38'0 0.0
2018-May-23 05:28N 39°34' E 002°38'0 0.0
2018-May-23 04:58N 39°34' E 002°38'0 0.0
2018-May-23 04:28N 39°34' E 002°38'0 0.0
2018-May-23 03:58N 39°34' E 002°38'0 0.0
2018-May-23 03:28N 39°34' E 002°38'0 0.0
2018-May-23 02:58N 39°34' E 002°38'0 0.0
2018-May-23 02:28N 39°34' E 002°38'0 0.0
2018-May-23 01:58N 39°34' E 002°38'0 0.0
2018-May-23 01:28N 39°34' E 002°38'0 0.0
2018-May-23 00:58N 39°34' E 002°38'0 0.0
2018-May-23 00:28N 39°34' E 002°38'0 0.0
2018-May-22 23:58N 39°34' E 002°38'0 0.0
2018-May-22 23:28N 39°34' E 002°38'0 0.0
2018-May-22 22:58N 39°34' E 002°38'0 0.0
2018-May-22 22:28N 39°34' E 002°38'0 0.0
2018-May-22 21:58N 39°34' E 002°38'0 0.0
2018-May-22 21:28N 39°34' E 002°38'0 0.0
2018-May-22 20:58N 39°34' E 002°38'0 0.0
2018-May-22 20:28N 39°34' E 002°38'0 0.0
2018-May-22 19:58N 39°34' E 002°38'0 0.0
2018-May-22 19:28N 39°34' E 002°38'0 0.0
2018-May-22 18:58N 39°34' E 002°38'0 0.0
2018-May-22 18:28N 39°34' E 002°38'0 0.0
2018-May-22 17:58N 39°34' E 002°38'0 0.0
2018-May-22 17:28N 39°34' E 002°38'0 0.0
2018-May-22 16:58N 39°34' E 002°38'0 0.0
2018-May-22 16:28N 39°34' E 002°38'0 0.0
2018-May-22 15:58N 39°34' E 002°38'0 0.0
2018-May-22 15:28N 39°34' E 002°38'0 0.0
2018-May-22 14:58N 39°34' E 002°38'0 0.0
2018-May-22 14:28N 39°34' E 002°38'0 0.0
2018-May-22 13:58N 39°34' E 002°38'0 0.0
2018-May-22 13:28N 39°34' E 002°38'0 0.0
2018-May-22 12:58N 39°34' E 002°38'0 0.0
2018-May-22 12:28N 39°34' E 002°38'0 0.0
2018-May-22 11:58N 39°34' E 002°38'0 0.0
2018-May-22 11:28N 39°34' E 002°38'0 0.0
2018-May-22 10:55N 39°34' E 002°38'0 0.0
2018-May-22 10:28N 39°34' E 002°38'0 0.0
2018-May-22 09:58N 39°34' E 002°38'0 0.0
2018-May-22 09:28N 39°34' E 002°38'0 0.0
2018-May-22 08:58N 39°34' E 002°38'0 0.0
2018-May-22 08:28N 39°34' E 002°38'0 0.0
2018-May-22 07:58N 39°34' E 002°38'0 0.0
2018-May-22 07:28N 39°34' E 002°38'0 0.0
2018-May-22 06:58N 39°34' E 002°38'0 0.0
2018-May-22 06:28N 39°34' E 002°38'0 0.0
2018-May-22 05:58N 39°34' E 002°38'0 0.0
2018-May-22 05:28N 39°34' E 002°38'0 0.0
2018-May-22 04:58N 39°34' E 002°38'0 0.0
2018-May-22 04:28N 39°34' E 002°38'0 0.0
2018-May-22 03:58N 39°34' E 002°38'0 0.0
2018-May-22 03:28N 39°34' E 002°38'0 0.0
2018-May-22 02:58N 39°34' E 002°38'0 0.0
2018-May-22 02:28N 39°34' E 002°38'0 0.0
2018-May-22 01:58N 39°34' E 002°38'0 0.0
2018-May-22 01:28N 39°34' E 002°38'0 0.0
2018-May-22 00:58N 39°34' E 002°38'0 0.0
2018-May-22 00:28N 39°34' E 002°38'0 0.0
2018-May-21 23:58N 39°34' E 002°38'0 0.0
2018-May-21 23:28N 39°34' E 002°38'0 0.0
2018-May-21 22:58N 39°34' E 002°38'0 0.0
2018-May-21 22:28N 39°34' E 002°38'0 0.0
2018-May-21 21:58N 39°34' E 002°38'0 0.0
2018-May-21 21:28N 39°34' E 002°38'0 0.0
2018-May-21 20:58N 39°34' E 002°38'0 0.0
2018-May-21 20:28N 39°34' E 002°38'0 0.0
2018-May-21 19:58N 39°34' E 002°38'0 0.0
2018-May-21 19:28N 39°34' E 002°38'0 0.0
2018-May-21 18:58N 39°34' E 002°38'0 0.0
2018-May-21 18:28N 39°34' E 002°38'0 0.0
2018-May-21 17:58N 39°34' E 002°38'0 0.0
2018-May-21 17:28N 39°34' E 002°38'0 0.0
2018-May-21 16:58N 39°34' E 002°38'0 0.0
2018-May-21 16:28N 39°34' E 002°38'0 0.0
2018-May-21 15:58N 39°34' E 002°38'0 0.0
2018-May-21 15:28N 39°34' E 002°38'0 0.0
2018-May-21 14:58N 39°34' E 002°38'0 0.0
2018-May-21 14:28N 39°34' E 002°38'0 0.0
2018-May-21 13:58N 39°34' E 002°38'0 0.0
2018-May-21 13:28N 39°34' E 002°38'0 0.0
2018-May-21 12:58N 39°34' E 002°38'0 0.0
2018-May-21 12:28N 39°34' E 002°38'0 0.0
2018-May-21 11:58N 39°34' E 002°38'0 0.0
2018-May-21 11:28N 39°34' E 002°38'0 0.0
2018-May-21 10:58N 39°34' E 002°38'0 0.0
2018-May-21 10:28N 39°34' E 002°38'0 0.0
2018-May-21 09:58N 39°34' E 002°38'0 0.0
2018-May-21 09:28N 39°34' E 002°38'0 0.0
2018-May-21 08:58N 39°34' E 002°38'0 0.0
2018-May-21 08:28N 39°34' E 002°38'0 0.0
2018-May-21 07:58N 39°34' E 002°38'0 0.0
2018-May-21 07:28N 39°34' E 002°38'0 0.0
2018-May-21 06:58N 39°34' E 002°38'0 0.0
2018-May-21 06:28N 39°34' E 002°38'0 0.0
2018-May-21 05:58N 39°34' E 002°38'0 0.0
2018-May-21 05:28N 39°34' E 002°38'0 0.0
2018-May-21 04:58N 39°34' E 002°38'0 0.0
2018-May-21 04:28N 39°34' E 002°38'0 0.0
2018-May-21 03:58N 39°34' E 002°38'0 0.0
2018-May-21 03:28N 39°34' E 002°38'0 0.0
2018-May-21 02:58N 39°34' E 002°38'0 0.0
2018-May-21 02:28N 39°34' E 002°38'0 0.0
2018-May-21 01:58N 39°34' E 002°38'0 0.0
2018-May-21 01:28N 39°34' E 002°38'0 0.0
2018-May-21 00:58N 39°34' E 002°38'0 0.0
2018-May-21 00:28N 39°34' E 002°38'0 0.0
2018-May-20 23:58N 39°34' E 002°38'0 0.0
2018-May-20 23:28N 39°34' E 002°38'0 0.0
2018-May-20 22:58N 39°34' E 002°38'0 0.0
2018-May-20 22:28N 39°34' E 002°38'0 0.0
2018-May-20 21:58N 39°34' E 002°38'0 0.0
2018-May-20 21:28N 39°34' E 002°38'0 0.0
2018-May-20 20:58N 39°34' E 002°38'0 0.0
2018-May-20 20:28N 39°34' E 002°38'0 0.0
2018-May-20 19:58N 39°34' E 002°38'0 0.0
2018-May-20 19:19N 39°34' E 002°38'0 0.0
2018-May-20 18:58N 39°34' E 002°38'0 0.0
2018-May-20 18:28N 39°34' E 002°38'0 0.0
2018-May-20 17:58N 39°34' E 002°38'0 0.0
2018-May-20 17:28N 39°34' E 002°38'0 0.0
2018-May-20 16:58N 39°34' E 002°38'0 0.0
2018-May-20 16:28N 39°34' E 002°38'0 0.0
2018-May-20 15:58N 39°34' E 002°38'0 0.0
2018-May-20 15:28N 39°34' E 002°38'0 0.0
2018-May-20 14:58N 39°34' E 002°38'0 0.0
2018-May-20 14:28N 39°34' E 002°38'0 0.0
2018-May-20 13:58N 39°34' E 002°38'0 0.0
2018-May-20 13:28N 39°34' E 002°38'0 0.0
2018-May-20 12:58N 39°34' E 002°38'0 0.0
2018-May-20 12:28N 39°34' E 002°38'0 0.0
2018-May-20 11:58N 39°34' E 002°38'0 0.0
2018-May-20 11:28N 39°34' E 002°38'0 0.0
2018-May-20 10:58N 39°34' E 002°38'0 0.0
2018-May-20 10:28N 39°34' E 002°38'0 0.0
2018-May-20 09:58N 39°34' E 002°38'0 0.0
2018-May-20 09:28N 39°34' E 002°38'0 0.0
2018-May-20 08:58N 39°34' E 002°38'0 0.0
2018-May-20 08:28N 39°34' E 002°38'0 0.0
2018-May-20 07:58N 39°34' E 002°38'0 0.0
2018-May-20 07:28N 39°34' E 002°38'0 0.0
2018-May-20 06:58N 39°34' E 002°38'0 0.0
2018-May-20 06:28N 39°34' E 002°38'0 0.0
2018-May-20 05:58N 39°34' E 002°38'0 0.0
2018-May-20 05:28N 39°34' E 002°38'0 0.0
2018-May-20 04:58N 39°34' E 002°38'0 0.0
2018-May-20 04:28N 39°34' E 002°38'0 0.0
2018-May-20 03:58N 39°34' E 002°38'0 0.0
2018-May-20 03:28N 39°34' E 002°38'0 0.0
2018-May-20 02:58N 39°34' E 002°38'0 0.0
2018-May-20 02:28N 39°34' E 002°38'0 0.0
2018-May-20 01:58N 39°34' E 002°38'0 0.0
2018-May-20 01:28N 39°34' E 002°38'0 0.0
2018-May-20 00:58N 39°34' E 002°38'0 0.0
2018-May-20 00:28N 39°34' E 002°38'0 0.0
2018-May-19 23:58N 39°34' E 002°38'0 0.0
2018-May-19 23:28N 39°34' E 002°38'0 0.0
2018-May-19 22:58N 39°34' E 002°38'0 0.0
2018-May-19 22:28N 39°34' E 002°38'0 0.0
2018-May-19 21:58N 39°34' E 002°38'0 0.0
2018-May-19 21:28N 39°34' E 002°38'0 0.0
2018-May-19 20:58N 39°34' E 002°38'0 0.0
2018-May-19 20:28N 39°34' E 002°38'0 0.0
2018-May-19 19:55N 39°34' E 002°38'0 0.0
2018-May-19 19:28N 39°34' E 002°38'0 0.0
2018-May-19 18:58N 39°34' E 002°38'0 0.0
2018-May-19 18:28N 39°34' E 002°38'0 0.0
2018-May-19 17:58N 39°34' E 002°38'0 0.0
2018-May-19 17:28N 39°34' E 002°38'0 0.0
2018-May-19 16:58N 39°34' E 002°38'0 0.0
2018-May-19 16:28N 39°34' E 002°38'0 0.0
2018-May-19 15:58N 39°34' E 002°38'0 0.0
2018-May-19 15:28N 39°34' E 002°38'0 0.2
2018-May-19 15:00N 39°34' E 002°38'4 7.1
2018-May-19 14:30N 39°31' E 002°35'4 7.0
2018-May-19 13:58N 39°28' E 002°31'0 0.0
2018-May-19 13:28N 39°28' E 002°32'0 0.0
2018-May-19 12:58N 39°28' E 002°32'0 0.0
2018-May-19 12:28N 39°28' E 002°31'0 0.0
2018-May-19 11:55N 39°28' E 002°31'0 0.1
2018-May-19 11:28N 39°28' E 002°31'0 0.1
2018-May-19 11:00N 39°28' E 002°31'0 0.0
2018-May-19 10:29N 39°28' E 002°31'0 0.0
2018-May-19 10:00N 39°28' E 002°31'0 0.0
2018-May-19 09:30N 39°28' E 002°31'0 0.0
2018-May-19 09:00N 39°28' E 002°31'0 0.0
2018-May-19 08:30N 39°28' E 002°31'0 0.0
2018-May-19 08:00N 39°28' E 002°31'0 0.0
2018-May-19 07:30N 39°28' E 002°31'3 5.1
2018-May-19 06:59N 39°28' E 002°28'  
Track history (hours):
 
Tides and Currents Weather Stations Pressure Air Temp Water Temp Dewpoint Dewpoint Depression Visibility Wind Speed Wind Dir Waves Ship Positions

Christina G

Last reported at 2018-May-26 07:52 UTC. Time now 2018-May-27 08:10 UTC.
Position N 38°50' E 001°26'.

Length 33 m; draft 2.5 m.

MMSI: 319032100.

Date/timePositionNaut miles runAvg speedWind from/ knotsBaromVisibWave heightAir tempDewpointWater temp
2018-May-26 07:52N 38°50' E 001°26'3 8.8
2018-May-26 07:30N 38°53' E 001°27'2 0.1
2018-May-24 19:52N 38°54' E 001°29'3 8.8
2018-May-24 19:30N 38°56' E 001°32'50 9.5
2018-May-24 14:11N 39°24' E 002°26'210.4
2018-May-24 13:58N 39°25' E 002°28'510.4
2018-May-24 13:30N 39°28' E 002°33'6 1.4
2018-May-24 08:58N 39°34' E 002°38'0 0.0
2018-May-24 08:28N 39°34' E 002°38'0 0.0
2018-May-24 07:58N 39°34' E 002°38'0 0.0
2018-May-24 07:28N 39°34' E 002°38'0 0.0
2018-May-24 06:55N 39°34' E 002°38'0 0.0
2018-May-24 06:28N 39°34' E 002°38'0 0.0
2018-May-24 05:58N 39°34' E 002°38'0 0.0
2018-May-24 05:28N 39°34' E 002°38'0 0.0
2018-May-24 04:58N 39°34' E 002°38'0 0.0
2018-May-24 04:28N 39°34' E 002°38'0 0.0
2018-May-24 03:58N 39°34' E 002°38'0 0.0
2018-May-24 03:28N 39°34' E 002°38'0 0.0
2018-May-24 02:58N 39°34' E 002°38'0 0.0
2018-May-24 02:28N 39°34' E 002°38'0 0.0
2018-May-24 01:58N 39°34' E 002°38'0 0.0
2018-May-24 01:28N 39°34' E 002°38'0 0.0
2018-May-24 00:58N 39°34' E 002°38'0 0.0
2018-May-24 00:28N 39°34' E 002°38'0 0.0
2018-May-23 23:58N 39°34' E 002°38'0 0.0
2018-May-23 23:28N 39°34' E 002°38'0 0.0
2018-May-23 22:58N 39°34' E 002°38'0 0.0
2018-May-23 22:28N 39°34' E 002°38'0 0.0
2018-May-23 21:58N 39°34' E 002°38'0 0.0
2018-May-23 21:28N 39°34' E 002°38'0 0.0
2018-May-23 20:58N 39°34' E 002°38'0 0.0
2018-May-23 20:28N 39°34' E 002°38'0 0.0
2018-May-23 19:58N 39°34' E 002°38'0 0.0
2018-May-23 19:28N 39°34' E 002°38'0 0.0
2018-May-23 18:58N 39°34' E 002°38'0 0.0
2018-May-23 18:28N 39°34' E 002°38'0 0.0
2018-May-23 17:58N 39°34' E 002°38'0 0.0
2018-May-23 17:28N 39°34' E 002°38'0 0.0
2018-May-23 16:58N 39°34' E 002°38'0 0.0
2018-May-23 16:28N 39°34' E 002°38'0 0.0
2018-May-23 15:58N 39°34' E 002°38'0 0.0
2018-May-23 15:28N 39°34' E 002°38'0 0.0
2018-May-23 14:58N 39°34' E 002°38'0 0.0
2018-May-23 14:28N 39°34' E 002°38'0 0.0
2018-May-23 13:58N 39°34' E 002°38'0 0.0
2018-May-23 13:28N 39°34' E 002°38'0 0.0
2018-May-23 12:58N 39°34' E 002°38'0 0.0
2018-May-23 12:28N 39°34' E 002°38'0 0.0
2018-May-23 11:58N 39°34' E 002°38'0 0.0
2018-May-23 11:28N 39°34' E 002°38'0 0.0
2018-May-23 10:58N 39°34' E 002°38'0 0.0
2018-May-23 10:28N 39°34' E 002°38'0 0.0
2018-May-23 09:58N 39°34' E 002°38'0 0.0
2018-May-23 09:25N 39°34' E 002°38'0 0.0
2018-May-23 08:58N 39°34' E 002°38'0 0.0
2018-May-23 08:28N 39°34' E 002°38'0 0.0
2018-May-23 07:58N 39°34' E 002°38'0 0.0
2018-May-23 07:28N 39°34' E 002°38'0 0.0
2018-May-23 06:58N 39°34' E 002°38'0 0.0
2018-May-23 06:28N 39°34' E 002°38'0 0.0
2018-May-23 05:58N 39°34' E 002°38'0 0.0
2018-May-23 05:28N 39°34' E 002°38'0 0.0
2018-May-23 04:58N 39°34' E 002°38'0 0.0
2018-May-23 04:28N 39°34' E 002°38'0 0.0
2018-May-23 03:58N 39°34' E 002°38'0 0.0
2018-May-23 03:28N 39°34' E 002°38'0 0.0
2018-May-23 02:58N 39°34' E 002°38'0 0.0
2018-May-23 02:28N 39°34' E 002°38'0 0.0
2018-May-23 01:58N 39°34' E 002°38'0 0.0
2018-May-23 01:28N 39°34' E 002°38'0 0.0
2018-May-23 00:58N 39°34' E 002°38'0 0.0
2018-May-23 00:28N 39°34' E 002°38'0 0.0
2018-May-22 23:58N 39°34' E 002°38'0 0.0
2018-May-22 23:28N 39°34' E 002°38'0 0.0
2018-May-22 22:58N 39°34' E 002°38'0 0.0
2018-May-22 22:28N 39°34' E 002°38'0 0.0
2018-May-22 21:58N 39°34' E 002°38'0 0.0
2018-May-22 21:28N 39°34' E 002°38'0 0.0
2018-May-22 20:58N 39°34' E 002°38'0 0.0
2018-May-22 20:28N 39°34' E 002°38'0 0.0
2018-May-22 19:58N 39°34' E 002°38'0 0.0
2018-May-22 19:28N 39°34' E 002°38'0 0.0
2018-May-22 18:58N 39°34' E 002°38'0 0.0
2018-May-22 18:28N 39°34' E 002°38'0 0.0
2018-May-22 17:58N 39°34' E 002°38'0 0.0
2018-May-22 17:28N 39°34' E 002°38'0 0.0
2018-May-22 16:58N 39°34' E 002°38'0 0.0
2018-May-22 16:28N 39°34' E 002°38'0 0.0
2018-May-22 15:58N 39°34' E 002°38'0 0.0
2018-May-22 15:28N 39°34' E 002°38'0 0.0
2018-May-22 14:58N 39°34' E 002°38'0 0.0
2018-May-22 14:28N 39°34' E 002°38'0 0.0
2018-May-22 13:58N 39°34' E 002°38'0 0.0
2018-May-22 13:28N 39°34' E 002°38'0 0.0
2018-May-22 12:58N 39°34' E 002°38'0 0.0
2018-May-22 12:28N 39°34' E 002°38'0 0.0
2018-May-22 11:58N 39°34' E 002°38'0 0.0
2018-May-22 11:28N 39°34' E 002°38'0 0.0
2018-May-22 10:55N 39°34' E 002°38'0 0.0
2018-May-22 10:28N 39°34' E 002°38'0 0.0
2018-May-22 09:58N 39°34' E 002°38'0 0.0
2018-May-22 09:28N 39°34' E 002°38'0 0.0
2018-May-22 08:58N 39°34' E 002°38'0 0.0
2018-May-22 08:28N 39°34' E 002°38'0 0.0
2018-May-22 07:58N 39°34' E 002°38'0 0.0
2018-May-22 07:28N 39°34' E 002°38'0 0.0
2018-May-22 06:58N 39°34' E 002°38'0 0.0
2018-May-22 06:28N 39°34' E 002°38'0 0.0
2018-May-22 05:58N 39°34' E 002°38'0 0.0
2018-May-22 05:28N 39°34' E 002°38'0 0.0
2018-May-22 04:58N 39°34' E 002°38'0 0.0
2018-May-22 04:28N 39°34' E 002°38'0 0.0
2018-May-22 03:58N 39°34' E 002°38'0 0.0
2018-May-22 03:28N 39°34' E 002°38'0 0.0
2018-May-22 02:58N 39°34' E 002°38'0 0.0
2018-May-22 02:28N 39°34' E 002°38'0 0.0
2018-May-22 01:58N 39°34' E 002°38'0 0.0
2018-May-22 01:28N 39°34' E 002°38'0 0.0
2018-May-22 00:58N 39°34' E 002°38'0 0.0
2018-May-22 00:28N 39°34' E 002°38'0 0.0
2018-May-21 23:58N 39°34' E 002°38'0 0.0
2018-May-21 23:28N 39°34' E 002°38'0 0.0
2018-May-21 22:58N 39°34' E 002°38'0 0.0
2018-May-21 22:28N 39°34' E 002°38'0 0.0
2018-May-21 21:58N 39°34' E 002°38'0 0.0
2018-May-21 21:28N 39°34' E 002°38'0 0.0
2018-May-21 20:58N 39°34' E 002°38'0 0.0
2018-May-21 20:28N 39°34' E 002°38'0 0.0
2018-May-21 19:58N 39°34' E 002°38'0 0.0
2018-May-21 19:28N 39°34' E 002°38'0 0.0
2018-May-21 18:58N 39°34' E 002°38'0 0.0
2018-May-21 18:28N 39°34' E 002°38'0 0.0
2018-May-21 17:58N 39°34' E 002°38'0 0.0
2018-May-21 17:28N 39°34' E 002°38'0 0.0
2018-May-21 16:58N 39°34' E 002°38'0 0.0
2018-May-21 16:28N 39°34' E 002°38'0 0.0
2018-May-21 15:58N 39°34' E 002°38'0 0.0
2018-May-21 15:28N 39°34' E 002°38'0 0.0
2018-May-21 14:58N 39°34' E 002°38'0 0.0
2018-May-21 14:28N 39°34' E 002°38'0 0.0
2018-May-21 13:58N 39°34' E 002°38'0 0.0
2018-May-21 13:28N 39°34' E 002°38'0 0.0
2018-May-21 12:58N 39°34' E 002°38'0 0.0
2018-May-21 12:28N 39°34' E 002°38'0 0.0
2018-May-21 11:58N 39°34' E 002°38'0 0.0
2018-May-21 11:28N 39°34' E 002°38'0 0.0
2018-May-21 10:58N 39°34' E 002°38'0 0.0
2018-May-21 10:28N 39°34' E 002°38'0 0.0
2018-May-21 09:58N 39°34' E 002°38'0 0.0
2018-May-21 09:28N 39°34' E 002°38'0 0.0
2018-May-21 08:58N 39°34' E 002°38'0 0.0
2018-May-21 08:28N 39°34' E 002°38'0 0.0
2018-May-21 07:58N 39°34' E 002°38'0 0.0
2018-May-21 07:28N 39°34' E 002°38'0 0.0
2018-May-21 06:58N 39°34' E 002°38'0 0.0
2018-May-21 06:28N 39°34' E 002°38'0 0.0
2018-May-21 05:58N 39°34' E 002°38'0 0.0
2018-May-21 05:28N 39°34' E 002°38'0 0.0
2018-May-21 04:58N 39°34' E 002°38'0 0.0
2018-May-21 04:28N 39°34' E 002°38'0 0.0
2018-May-21 03:58N 39°34' E 002°38'0 0.0
2018-May-21 03:28N 39°34' E 002°38'0 0.0
2018-May-21 02:58N 39°34' E 002°38'0 0.0
2018-May-21 02:28N 39°34' E 002°38'0 0.0
2018-May-21 01:58N 39°34' E 002°38'0 0.0
2018-May-21 01:28N 39°34' E 002°38'0 0.0
2018-May-21 00:58N 39°34' E 002°38'0 0.0
2018-May-21 00:28N 39°34' E 002°38'0 0.0
2018-May-20 23:58N 39°34' E 002°38'0 0.0
2018-May-20 23:28N 39°34' E 002°38'0 0.0
2018-May-20 22:58N 39°34' E 002°38'0 0.0
2018-May-20 22:28N 39°34' E 002°38'0 0.0
2018-May-20 21:58N 39°34' E 002°38'0 0.0
2018-May-20 21:28N 39°34' E 002°38'0 0.0
2018-May-20 20:58N 39°34' E 002°38'0 0.0
2018-May-20 20:28N 39°34' E 002°38'0 0.0
2018-May-20 19:58N 39°34' E 002°38'0 0.0
2018-May-20 19:19N 39°34' E 002°38'0 0.0
2018-May-20 18:58N 39°34' E 002°38'0 0.0
2018-May-20 18:28N 39°34' E 002°38'0 0.0
2018-May-20 17:58N 39°34' E 002°38'0 0.0
2018-May-20 17:28N 39°34' E 002°38'0 0.0
2018-May-20 16:58N 39°34' E 002°38'0 0.0
2018-May-20 16:28N 39°34' E 002°38'0 0.0
2018-May-20 15:58N 39°34' E 002°38'0 0.0
2018-May-20 15:28N 39°34' E 002°38'0 0.0
2018-May-20 14:58N 39°34' E 002°38'0 0.0
2018-May-20 14:28N 39°34' E 002°38'0 0.0
2018-May-20 13:58N 39°34' E 002°38'0 0.0
2018-May-20 13:28N 39°34' E 002°38'0 0.0
2018-May-20 12:58N 39°34' E 002°38'0 0.0
2018-May-20 12:28N 39°34' E 002°38'0 0.0
2018-May-20 11:58N 39°34' E 002°38'0 0.0
2018-May-20 11:28N 39°34' E 002°38'0 0.0
2018-May-20 10:58N 39°34' E 002°38'0 0.0
2018-May-20 10:28N 39°34' E 002°38'0 0.0
2018-May-20 09:58N 39°34' E 002°38'0 0.0
2018-May-20 09:28N 39°34' E 002°38'0 0.0
2018-May-20 08:58N 39°34' E 002°38'0 0.0
2018-May-20 08:28N 39°34' E 002°38'0 0.0
2018-May-20 07:58N 39°34' E 002°38'0 0.0
2018-May-20 07:28N 39°34' E 002°38'0 0.0
2018-May-20 06:58N 39°34' E 002°38'0 0.0
2018-May-20 06:28N 39°34' E 002°38'0 0.0
2018-May-20 05:58N 39°34' E 002°38'0 0.0
2018-May-20 05:28N 39°34' E 002°38'0 0.0
2018-May-20 04:58N 39°34' E 002°38'0 0.0
2018-May-20 04:28N 39°34' E 002°38'0 0.0
2018-May-20 03:58N 39°34' E 002°38'0 0.0
2018-May-20 03:28N 39°34' E 002°38'0 0.0
2018-May-20 02:58N 39°34' E 002°38'0 0.0
2018-May-20 02:28N 39°34' E 002°38'0 0.0
2018-May-20 01:58N 39°34' E 002°38'0 0.0
2018-May-20 01:28N 39°34' E 002°38'0 0.0
2018-May-20 00:58N 39°34' E 002°38'0 0.0
2018-May-20 00:28N 39°34' E 002°38'0 0.0
2018-May-19 23:58N 39°34' E 002°38'0 0.0
2018-May-19 23:28N 39°34' E 002°38'0 0.0
2018-May-19 22:58N 39°34' E 002°38'0 0.0
2018-May-19 22:28N 39°34' E 002°38'0 0.0
2018-May-19 21:58N 39°34' E 002°38'0 0.0
2018-May-19 21:28N 39°34' E 002°38'0 0.0
2018-May-19 20:58N 39°34' E 002°38'0 0.0
2018-May-19 20:28N 39°34' E 002°38'0 0.0
2018-May-19 19:55N 39°34' E 002°38'0 0.0
2018-May-19 19:28N 39°34' E 002°38'0 0.0
2018-May-19 18:58N 39°34' E 002°38'0 0.0
2018-May-19 18:28N 39°34' E 002°38'0 0.0
2018-May-19 17:58N 39°34' E 002°38'0 0.0
2018-May-19 17:28N 39°34' E 002°38'0 0.0
2018-May-19 16:58N 39°34' E 002°38'0 0.0
2018-May-19 16:28N 39°34' E 002°38'0 0.0
2018-May-19 15:58N 39°34' E 002°38'0 0.0
2018-May-19 15:28N 39°34' E 002°38'0 0.2
2018-May-19 15:00N 39°34' E 002°38'4 7.1
2018-May-19 14:30N 39°31' E 002°35'4 7.0
2018-May-19 13:58N 39°28' E 002°31'0 0.0
2018-May-19 13:28N 39°28' E 002°32'0 0.0
2018-May-19 12:58N 39°28' E 002°32'0 0.0
2018-May-19 12:28N 39°28' E 002°31'0 0.0
2018-May-19 11:55N 39°28' E 002°31'0 0.1
2018-May-19 11:28N 39°28' E 002°31'0 0.1
2018-May-19 11:00N 39°28' E 002°31'0 0.0
2018-May-19 10:29N 39°28' E 002°31'0 0.0
2018-May-19 10:00N 39°28' E 002°31'0 0.0
2018-May-19 09:30N 39°28' E 002°31'0 0.0
2018-May-19 09:00N 39°28' E 002°31'0 0.0
2018-May-19 08:30N 39°28' E 002°31'0 0.0
2018-May-19 08:00N 39°28' E 002°31'0 0.0
2018-May-19 07:30N 39°28' E 002°31'3 5.1
2018-May-19 06:59N 39°28' E 002°28'  

Dump ship's entire track history